sensor_id;sensor_type;location;lat;lon;timestamp;temperature;humidity
52799;DHT22;38667;42.872;74.622;2024-02-21T00:02:12;-6.30;79.40
52799;DHT22;38667;42.872;74.622;2024-02-21T00:04:38;-6.20;79.30
52799;DHT22;38667;42.872;74.622;2024-02-21T00:07:05;-6.20;78.70
52799;DHT22;38667;42.872;74.622;2024-02-21T00:09:32;-6.20;78.40
52799;DHT22;38667;42.872;74.622;2024-02-21T00:11:59;-6.20;78.10
52799;DHT22;38667;42.872;74.622;2024-02-21T00:14:25;-6.20;77.60
52799;DHT22;38667;42.872;74.622;2024-02-21T00:16:51;-6.30;77.20
52799;DHT22;38667;42.872;74.622;2024-02-21T00:19:18;-6.30;77.40
52799;DHT22;38667;42.872;74.622;2024-02-21T00:21:44;-6.30;77.30
52799;DHT22;38667;42.872;74.622;2024-02-21T00:24:10;-6.30;77.30
52799;DHT22;38667;42.872;74.622;2024-02-21T00:26:38;-6.30;76.90
52799;DHT22;38667;42.872;74.622;2024-02-21T00:29:04;-6.30;76.50
52799;DHT22;38667;42.872;74.622;2024-02-21T00:31:31;-6.30;76.50
52799;DHT22;38667;42.872;74.622;2024-02-21T00:33:57;-6.30;76.20
52799;DHT22;38667;42.872;74.622;2024-02-21T00:36:24;-6.40;76.60
52799;DHT22;38667;42.872;74.622;2024-02-21T00:38:50;-6.40;77.00
52799;DHT22;38667;42.872;74.622;2024-02-21T00:41:16;-6.40;77.10
52799;DHT22;38667;42.872;74.622;2024-02-21T00:43:44;-6.50;76.90
52799;DHT22;38667;42.872;74.622;2024-02-21T00:46:10;-6.60;76.90
52799;DHT22;38667;42.872;74.622;2024-02-21T00:48:37;-6.60;77.20
52799;DHT22;38667;42.872;74.622;2024-02-21T00:51:04;-6.60;77.50
52799;DHT22;38667;42.872;74.622;2024-02-21T00:53:30;-6.50;77.50
52799;DHT22;38667;42.872;74.622;2024-02-21T00:55:56;-6.50;77.20
52799;DHT22;38667;42.872;74.622;2024-02-21T00:58:23;-6.50;77.40
52799;DHT22;38667;42.872;74.622;2024-02-21T01:00:51;-6.40;78.80
52799;DHT22;38667;42.872;74.622;2024-02-21T01:03:17;-6.30;78.70
52799;DHT22;38667;42.872;74.622;2024-02-21T01:05:43;-6.30;78.70
52799;DHT22;38667;42.872;74.622;2024-02-21T01:08:10;-6.30;78.40
52799;DHT22;38667;42.872;74.622;2024-02-21T01:10:36;-6.20;79.10
52799;DHT22;38667;42.872;74.622;2024-02-21T01:13:02;-6.20;77.90
52799;DHT22;38667;42.872;74.622;2024-02-21T01:15:29;-6.20;77.50
52799;DHT22;38667;42.872;74.622;2024-02-21T01:17:57;-6.20;77.40
52799;DHT22;38667;42.872;74.622;2024-02-21T01:20:23;-6.30;77.40
52799;DHT22;38667;42.872;74.622;2024-02-21T01:22:49;-6.30;77.60
52799;DHT22;38667;42.872;74.622;2024-02-21T01:25:16;-6.20;77.90
52799;DHT22;38667;42.872;74.622;2024-02-21T01:27:42;-6.10;77.80
52799;DHT22;38667;42.872;74.622;2024-02-21T01:30:09;-6.00;76.90
52799;DHT22;38667;42.872;74.622;2024-02-21T01:32:36;-6.00;76.60
52799;DHT22;38667;42.872;74.622;2024-02-21T01:35:04;-6.00;76.30
52799;DHT22;38667;42.872;74.622;2024-02-21T01:37:31;-6.10;75.60
52799;DHT22;38667;42.872;74.622;2024-02-21T01:39:57;-6.20;75.80
52799;DHT22;38667;42.872;74.622;2024-02-21T01:42:23;-6.10;76.20
52799;DHT22;38667;42.872;74.622;2024-02-21T01:44:50;-6.10;76.00
52799;DHT22;38667;42.872;74.622;2024-02-21T01:47:16;-6.10;76.30
52799;DHT22;38667;42.872;74.622;2024-02-21T01:49:43;-6.00;76.10
52799;DHT22;38667;42.872;74.622;2024-02-21T01:52:12;-5.90;75.90
52799;DHT22;38667;42.872;74.622;2024-02-21T01:54:39;-5.90;75.50
52799;DHT22;38667;42.872;74.622;2024-02-21T01:57:06;-5.90;75.10
52799;DHT22;38667;42.872;74.622;2024-02-21T01:59:32;-5.80;75.20
52799;DHT22;38667;42.872;74.622;2024-02-21T02:01:58;-5.80;75.20
52799;DHT22;38667;42.872;74.622;2024-02-21T02:04:26;-5.90;74.50
52799;DHT22;38667;42.872;74.622;2024-02-21T02:06:53;-5.90;74.30
52799;DHT22;38667;42.872;74.622;2024-02-21T02:09:21;-5.90;73.70
52799;DHT22;38667;42.872;74.622;2024-02-21T02:11:48;-6.00;74.00
52799;DHT22;38667;42.872;74.622;2024-02-21T02:14:14;-6.00;74.50
52799;DHT22;38667;42.872;74.622;2024-02-21T02:16:40;-5.90;74.90
52799;DHT22;38667;42.872;74.622;2024-02-21T02:19:07;-5.90;74.70
52799;DHT22;38667;42.872;74.622;2024-02-21T02:21:37;-6.00;74.90
52799;DHT22;38667;42.872;74.622;2024-02-21T02:24:07;-5.90;75.70
52799;DHT22;38667;42.872;74.622;2024-02-21T02:26:34;-5.70;75.80
52799;DHT22;38667;42.872;74.622;2024-02-21T02:29:02;-5.70;75.40
52799;DHT22;38667;42.872;74.622;2024-02-21T02:31:28;-5.50;75.00
52799;DHT22;38667;42.872;74.622;2024-02-21T02:33:54;-5.40;74.60
52799;DHT22;38667;42.872;74.622;2024-02-21T02:36:21;-5.40;75.00
52799;DHT22;38667;42.872;74.622;2024-02-21T02:38:47;-5.30;74.10
52799;DHT22;38667;42.872;74.622;2024-02-21T02:41:15;-5.20;74.00
52799;DHT22;38667;42.872;74.622;2024-02-21T02:43:41;-5.10;74.20
52799;DHT22;38667;42.872;74.622;2024-02-21T02:46:08;-5.00;74.10
52799;DHT22;38667;42.872;74.622;2024-02-21T02:48:34;-4.90;74.30
52799;DHT22;38667;42.872;74.622;2024-02-21T02:51:00;-4.90;73.80
52799;DHT22;38667;42.872;74.622;2024-02-21T02:53:27;-4.80;73.40
52799;DHT22;38667;42.872;74.622;2024-02-21T02:55:53;-4.70;73.40
52799;DHT22;38667;42.872;74.622;2024-02-21T02:58:21;-4.70;73.30
52799;DHT22;38667;42.872;74.622;2024-02-21T03:00:47;-4.60;73.20
52799;DHT22;38667;42.872;74.622;2024-02-21T03:03:14;-4.50;73.10
52799;DHT22;38667;42.872;74.622;2024-02-21T03:05:40;-4.50;72.60
52799;DHT22;38667;42.872;74.622;2024-02-21T03:08:06;-4.40;72.20
52799;DHT22;38667;42.872;74.622;2024-02-21T03:10:33;-4.30;71.90
52799;DHT22;38667;42.872;74.622;2024-02-21T03:12:59;-4.20;71.20
52799;DHT22;38667;42.872;74.622;2024-02-21T03:15:27;-4.10;71.30
52799;DHT22;38667;42.872;74.622;2024-02-21T03:17:53;-4.00;71.30
52799;DHT22;38667;42.872;74.622;2024-02-21T03:20:20;-3.90;71.00
52799;DHT22;38667;42.872;74.622;2024-02-21T03:22:46;-3.80;69.90
52799;DHT22;38667;42.872;74.622;2024-02-21T03:25:12;-3.80;69.00
52799;DHT22;38667;42.872;74.622;2024-02-21T03:27:38;-3.60;69.60
52799;DHT22;38667;42.872;74.622;2024-02-21T03:30:06;-3.60;69.30
52799;DHT22;38667;42.872;74.622;2024-02-21T03:32:34;-3.50;69.80
52799;DHT22;38667;42.872;74.622;2024-02-21T03:35:00;-3.60;70.10
52799;DHT22;38667;42.872;74.622;2024-02-21T03:37:27;-3.60;69.80
52799;DHT22;38667;42.872;74.622;2024-02-21T03:39:53;-3.60;69.80
52799;DHT22;38667;42.872;74.622;2024-02-21T03:42:19;-3.60;69.80
52799;DHT22;38667;42.872;74.622;2024-02-21T03:44:46;-3.70;70.10
52799;DHT22;38667;42.872;74.622;2024-02-21T03:47:12;-3.70;71.10
52799;DHT22;38667;42.872;74.622;2024-02-21T03:49:40;-3.60;71.50
52799;DHT22;38667;42.872;74.622;2024-02-21T03:52:06;-3.40;71.60
52799;DHT22;38667;42.872;74.622;2024-02-21T03:54:33;-3.30;71.80
52799;DHT22;38667;42.872;74.622;2024-02-21T03:56:59;-3.20;71.30
52799;DHT22;38667;42.872;74.622;2024-02-21T03:59:25;-3.10;70.90
52799;DHT22;38667;42.872;74.622;2024-02-21T04:01:52;-2.80;70.60
52799;DHT22;38667;42.872;74.622;2024-02-21T04:04:18;-2.70;68.60
52799;DHT22;38667;42.872;74.622;2024-02-21T04:06:50;-2.50;65.20
52799;DHT22;38667;42.872;74.622;2024-02-21T04:09:16;-2.40;63.30
52799;DHT22;38667;42.872;74.622;2024-02-21T04:11:43;-2.30;62.10
52799;DHT22;38667;42.872;74.622;2024-02-21T04:14:09;-2.30;60.60
52799;DHT22;38667;42.872;74.622;2024-02-21T04:16:36;-2.20;61.10
52799;DHT22;38667;42.872;74.622;2024-02-21T04:19:02;-2.20;60.20
52799;DHT22;38667;42.872;74.622;2024-02-21T04:21:28;-2.20;58.90
52799;DHT22;38667;42.872;74.622;2024-02-21T04:23:56;-2.10;59.80
52799;DHT22;38667;42.872;74.622;2024-02-21T04:26:23;-2.10;59.00
52799;DHT22;38667;42.872;74.622;2024-02-21T04:28:49;-1.90;58.60
52799;DHT22;38667;42.872;74.622;2024-02-21T04:31:15;-1.90;57.20
52799;DHT22;38667;42.872;74.622;2024-02-21T04:33:42;-1.80;56.50
52799;DHT22;38667;42.872;74.622;2024-02-21T04:36:08;-1.60;56.30
52799;DHT22;38667;42.872;74.622;2024-02-21T04:38:34;-1.60;54.70
52799;DHT22;38667;42.872;74.622;2024-02-21T04:41:02;-1.50;56.70
52799;DHT22;38667;42.872;74.622;2024-02-21T04:43:28;-1.40;57.10
52799;DHT22;38667;42.872;74.622;2024-02-21T04:45:55;-1.30;55.20
52799;DHT22;38667;42.872;74.622;2024-02-21T04:48:21;-1.30;56.10
52799;DHT22;38667;42.872;74.622;2024-02-21T04:50:47;-1.20;55.70
52799;DHT22;38667;42.872;74.622;2024-02-21T04:53:14;-1.20;55.50
52799;DHT22;38667;42.872;74.622;2024-02-21T04:55:40;-1.00;55.80
52799;DHT22;38667;42.872;74.622;2024-02-21T04:58:08;-1.00;54.80
52799;DHT22;38667;42.872;74.622;2024-02-21T05:00:34;-1.10;54.50
52799;DHT22;38667;42.872;74.622;2024-02-21T05:03:01;-1.10;56.50
52799;DHT22;38667;42.872;74.622;2024-02-21T05:05:27;-1.00;55.80
52799;DHT22;38667;42.872;74.622;2024-02-21T05:07:53;-0.90;55.20
52799;DHT22;38667;42.872;74.622;2024-02-21T05:10:20;-0.90;56.40
52799;DHT22;38667;42.872;74.622;2024-02-21T05:12:46;-0.90;55.60
52799;DHT22;38667;42.872;74.622;2024-02-21T05:15:14;-1.00;57.10
52799;DHT22;38667;42.872;74.622;2024-02-21T05:17:41;-1.00;55.50
52799;DHT22;38667;42.872;74.622;2024-02-21T05:20:08;-1.00;55.60
52799;DHT22;38667;42.872;74.622;2024-02-21T05:22:34;-1.10;55.10
52799;DHT22;38667;42.872;74.622;2024-02-21T05:25:01;-1.20;55.50
52799;DHT22;38667;42.872;74.622;2024-02-21T05:27:27;-1.10;56.60
52799;DHT22;38667;42.872;74.622;2024-02-21T05:29:54;-1.10;56.00
52799;DHT22;38667;42.872;74.622;2024-02-21T05:32:22;-1.00;56.20
52799;DHT22;38667;42.872;74.622;2024-02-21T05:34:49;-1.00;56.20
52799;DHT22;38667;42.872;74.622;2024-02-21T05:37:15;-0.90;57.50
52799;DHT22;38667;42.872;74.622;2024-02-21T05:39:42;-1.00;58.20
52799;DHT22;38667;42.872;74.622;2024-02-21T05:42:08;-1.00;58.70
52799;DHT22;38667;42.872;74.622;2024-02-21T05:44:34;-1.00;58.90
52799;DHT22;38667;42.872;74.622;2024-02-21T05:47:01;-1.00;60.40
52799;DHT22;38667;42.872;74.622;2024-02-21T05:49:28;-1.00;60.10
52799;DHT22;38667;42.872;74.622;2024-02-21T05:51:55;-1.00;59.40
52799;DHT22;38667;42.872;74.622;2024-02-21T05:54:21;-1.00;58.80
52799;DHT22;38667;42.872;74.622;2024-02-21T05:56:47;-0.90;59.70
52799;DHT22;38667;42.872;74.622;2024-02-21T05:59:14;-0.80;59.20
52799;DHT22;38667;42.872;74.622;2024-02-21T06:01:40;-0.80;59.20
52799;DHT22;38667;42.872;74.622;2024-02-21T06:04:06;-0.80;59.30
52799;DHT22;38667;42.872;74.622;2024-02-21T06:06:34;-0.80;59.30
52799;DHT22;38667;42.872;74.622;2024-02-21T06:09:01;-0.80;59.10
52799;DHT22;38667;42.872;74.622;2024-02-21T06:11:27;-0.70;58.30
52799;DHT22;38667;42.872;74.622;2024-02-21T06:13:53;-0.60;58.80
52799;DHT22;38667;42.872;74.622;2024-02-21T06:16:20;-0.50;59.80
52799;DHT22;38667;42.872;74.622;2024-02-21T06:18:46;-0.50;59.10
52799;DHT22;38667;42.872;74.622;2024-02-21T06:21:12;-0.40;59.40
52799;DHT22;38667;42.872;74.622;2024-02-21T06:23:40;-0.10;58.30
52799;DHT22;38667;42.872;74.622;2024-02-21T06:26:07;0.50;56.70
52799;DHT22;38667;42.872;74.622;2024-02-21T06:28:33;1.20;54.60
52799;DHT22;38667;42.872;74.622;2024-02-21T06:30:59;1.90;52.90
52799;DHT22;38667;42.872;74.622;2024-02-21T06:33:26;2.60;51.90
52799;DHT22;38667;42.872;74.622;2024-02-21T06:35:52;3.20;49.70
52799;DHT22;38667;42.872;74.622;2024-02-21T06:38:18;3.50;49.20
52799;DHT22;38667;42.872;74.622;2024-02-21T06:40:46;3.40;48.10
52799;DHT22;38667;42.872;74.622;2024-02-21T06:43:12;3.00;49.20
52799;DHT22;38667;42.872;74.622;2024-02-21T06:45:39;2.40;51.00
52799;DHT22;38667;42.872;74.622;2024-02-21T06:48:06;2.40;50.80
52799;DHT22;38667;42.872;74.622;2024-02-21T06:50:32;2.40;51.60
52799;DHT22;38667;42.872;74.622;2024-02-21T06:52:59;2.40;50.90
52799;DHT22;38667;42.872;74.622;2024-02-21T06:55:25;2.20;51.30
52799;DHT22;38667;42.872;74.622;2024-02-21T06:57:53;2.10;50.50
52799;DHT22;38667;42.872;74.622;2024-02-21T07:00:20;1.90;51.40
52799;DHT22;38667;42.872;74.622;2024-02-21T07:02:46;1.90;51.40
52799;DHT22;38667;42.872;74.622;2024-02-21T07:05:14;1.90;53.10
52799;DHT22;38667;42.872;74.622;2024-02-21T07:07:40;2.00;52.50
52799;DHT22;38667;42.872;74.622;2024-02-21T07:10:07;2.10;51.20
52799;DHT22;38667;42.872;74.622;2024-02-21T07:12:33;2.10;50.90
52799;DHT22;38667;42.872;74.622;2024-02-21T07:15:01;2.20;51.80
52799;DHT22;38667;42.872;74.622;2024-02-21T07:17:28;2.40;51.80
52799;DHT22;38667;42.872;74.622;2024-02-21T07:19:54;2.30;51.00
52799;DHT22;38667;42.872;74.622;2024-02-21T07:22:20;2.10;50.70
52799;DHT22;38667;42.872;74.622;2024-02-21T07:24:47;2.50;49.90
52799;DHT22;38667;42.872;74.622;2024-02-21T07:27:14;3.10;48.90
52799;DHT22;38667;42.872;74.622;2024-02-21T07:29:41;3.20;49.00
52799;DHT22;38667;42.872;74.622;2024-02-21T07:32:09;3.30;49.80
52799;DHT22;38667;42.872;74.622;2024-02-21T07:34:35;3.60;47.10
52799;DHT22;38667;42.872;74.622;2024-02-21T07:37:01;3.50;47.30
52799;DHT22;38667;42.872;74.622;2024-02-21T07:39:28;3.60;49.10
52799;DHT22;38667;42.872;74.622;2024-02-21T07:41:54;3.70;47.10
52799;DHT22;38667;42.872;74.622;2024-02-21T08:15:11;3.70;40.80
52799;DHT22;38667;42.872;74.622;2024-02-21T08:17:38;4.00;41.20
52799;DHT22;38667;42.872;74.622;2024-02-21T08:20:05;4.00;41.20
52799;DHT22;38667;42.872;74.622;2024-02-21T08:22:31;4.30;41.70
52799;DHT22;38667;42.872;74.622;2024-02-21T08:24:58;4.70;44.20
52799;DHT22;38667;42.872;74.622;2024-02-21T08:27:24;4.80;39.90
52799;DHT22;38667;42.872;74.622;2024-02-21T08:29:50;5.10;41.10
52799;DHT22;38667;42.872;74.622;2024-02-21T08:32:18;5.60;40.00
52799;DHT22;38667;42.872;74.622;2024-02-21T08:37:48;5.90;40.00
52799;DHT22;38667;42.872;74.622;2024-02-21T08:46:30;7.40;36.90
52799;DHT22;38667;42.872;74.622;2024-02-21T08:48:57;7.10;38.00
52799;DHT22;38667;42.872;74.622;2024-02-21T08:51:24;6.50;39.20
52799;DHT22;38667;42.872;74.622;2024-02-21T08:53:50;6.50;39.10
52799;DHT22;38667;42.872;74.622;2024-02-21T08:56:16;6.70;37.30
52799;DHT22;38667;42.872;74.622;2024-02-21T08:58:43;6.30;39.30
52799;DHT22;38667;42.872;74.622;2024-02-21T09:01:09;5.90;41.50
52799;DHT22;38667;42.872;74.622;2024-02-21T09:03:36;5.40;41.40
52799;DHT22;38667;42.872;74.622;2024-02-21T09:06:05;5.00;41.00
52799;DHT22;38667;42.872;74.622;2024-02-21T09:08:32;4.50;42.60
52799;DHT22;38667;42.872;74.622;2024-02-21T09:10:58;4.50;42.60
52799;DHT22;38667;42.872;74.622;2024-02-21T09:13:25;4.50;41.20
52799;DHT22;38667;42.872;74.622;2024-02-21T09:15:51;5.20;41.40
52799;DHT22;38667;42.872;74.622;2024-02-21T09:18:17;5.70;40.00
52799;DHT22;38667;42.872;74.622;2024-02-21T09:20:44;6.30;38.80
52799;DHT22;38667;42.872;74.622;2024-02-21T09:23:12;6.90;38.10
52799;DHT22;38667;42.872;74.622;2024-02-21T09:34:48;6.80;38.60
52799;DHT22;38667;42.872;74.622;2024-02-21T09:37:14;6.70;35.80
52799;DHT22;38667;42.872;74.622;2024-02-21T09:40:11;6.40;37.60
52799;DHT22;38667;42.872;74.622;2024-02-21T09:42:38;5.70;39.20
52799;DHT22;38667;42.872;74.622;2024-02-21T09:48:39;5.20;40.60
52799;DHT22;38667;42.872;74.622;2024-02-21T09:51:09;5.90;39.80
52799;DHT22;38667;42.872;74.622;2024-02-21T09:53:38;6.40;38.20
52799;DHT22;38667;42.872;74.622;2024-02-21T09:56:08;6.30;39.20
52799;DHT22;38667;42.872;74.622;2024-02-21T09:58:35;6.00;39.90
52799;DHT22;38667;42.872;74.622;2024-02-21T10:01:01;5.60;41.10
52799;DHT22;38667;42.872;74.622;2024-02-21T10:03:28;5.00;41.60
52799;DHT22;38667;42.872;74.622;2024-02-21T10:05:54;4.40;44.50
52799;DHT22;38667;42.872;74.622;2024-02-21T10:08:20;3.80;46.60
52799;DHT22;38667;42.872;74.622;2024-02-21T10:10:47;3.80;46.80
52799;DHT22;38667;42.872;74.622;2024-02-21T10:13:24;3.80;45.90
52799;DHT22;38667;42.872;74.622;2024-02-21T10:16:01;3.70;46.50
52799;DHT22;38667;42.872;74.622;2024-02-21T10:18:28;3.40;43.40
52799;DHT22;38667;42.872;74.622;2024-02-21T10:21:03;3.60;45.00
52799;DHT22;38667;42.872;74.622;2024-02-21T10:23:40;3.60;44.70
52799;DHT22;38667;42.872;74.622;2024-02-21T10:26:07;3.90;42.80
52799;DHT22;38667;42.872;74.622;2024-02-21T10:28:36;4.30;41.70
52799;DHT22;38667;42.872;74.622;2024-02-21T10:31:03;4.00;41.90
52799;DHT22;38667;42.872;74.622;2024-02-21T10:33:29;3.80;44.90
52799;DHT22;38667;42.872;74.622;2024-02-21T10:36:05;3.60;45.50
52799;DHT22;38667;42.872;74.622;2024-02-21T10:38:31;3.30;46.80
52799;DHT22;38667;42.872;74.622;2024-02-21T10:40:58;3.30;47.10
52799;DHT22;38667;42.872;74.622;2024-02-21T10:43:26;3.30;48.50
52799;DHT22;38667;42.872;74.622;2024-02-21T10:45:55;3.30;48.10
52799;DHT22;38667;42.872;74.622;2024-02-21T10:48:38;3.00;49.30
52799;DHT22;38667;42.872;74.622;2024-02-21T10:51:14;2.80;49.60
52799;DHT22;38667;42.872;74.622;2024-02-21T10:53:45;2.80;50.30
52799;DHT22;38667;42.872;74.622;2024-02-21T10:56:21;2.80;50.20
52799;DHT22;38667;42.872;74.622;2024-02-21T10:58:48;2.80;51.50
52799;DHT22;38667;42.872;74.622;2024-02-21T11:01:18;2.60;51.60
52799;DHT22;38667;42.872;74.622;2024-02-21T11:03:46;2.70;50.50
52799;DHT22;38667;42.872;74.622;2024-02-21T11:06:14;2.80;51.10
52799;DHT22;38667;42.872;74.622;2024-02-21T11:08:41;2.60;51.50
52799;DHT22;38667;42.872;74.622;2024-02-21T11:11:07;2.40;51.20
52799;DHT22;38667;42.872;74.622;2024-02-21T11:13:35;2.10;52.80
52799;DHT22;38667;42.872;74.622;2024-02-21T11:16:09;1.90;53.70
52799;DHT22;38667;42.872;74.622;2024-02-21T11:18:37;1.80;52.90
52799;DHT22;38667;42.872;74.622;2024-02-21T11:21:04;1.60;53.80
52799;DHT22;38667;42.872;74.622;2024-02-21T11:23:30;1.50;53.80
52799;DHT22;38667;42.872;74.622;2024-02-21T11:26:05;1.40;54.90
52799;DHT22;38667;42.872;74.622;2024-02-21T11:28:32;1.30;55.00
52799;DHT22;38667;42.872;74.622;2024-02-21T11:31:07;1.50;54.50
52799;DHT22;38667;42.872;74.622;2024-02-21T11:33:36;1.50;54.40
52799;DHT22;38667;42.872;74.622;2024-02-21T11:36:05;1.50;54.60
52799;DHT22;38667;42.872;74.622;2024-02-21T11:38:31;1.40;55.20
